createdAt,value
2019-04-05T00:01:53.277Z,91.70
2019-04-05T00:04:22.884Z,91.90
2019-04-05T00:06:52.529Z,92.00
2019-04-05T00:09:22.317Z,92.10
2019-04-05T00:11:51.929Z,92.20
2019-04-05T00:14:21.567Z,92.10
2019-04-05T00:16:51.258Z,92.10
2019-04-05T00:19:20.923Z,92.30
2019-04-05T00:21:50.537Z,92.30
2019-04-05T00:24:20.217Z,92.30
2019-04-05T00:26:49.862Z,92.40
2019-04-05T00:29:19.632Z,92.60
2019-04-05T00:31:49.333Z,92.70
2019-04-05T00:34:19.131Z,92.70
2019-04-05T00:36:48.869Z,92.90
2019-04-05T00:39:18.588Z,92.90
2019-04-05T00:41:48.289Z,93.00
2019-04-05T00:44:17.985Z,93.10
2019-04-05T00:46:47.807Z,93.20
2019-04-05T00:49:17.492Z,93.40
2019-04-05T00:51:47.181Z,93.40
2019-04-05T00:54:16.792Z,93.50
2019-04-05T00:56:46.466Z,93.60
2019-04-05T00:59:16.077Z,93.70
2019-04-05T01:01:45.920Z,93.80
2019-04-05T01:04:15.549Z,93.80
2019-04-05T01:06:45.276Z,93.90
2019-04-05T01:09:15.020Z,94.00
2019-04-05T01:11:44.683Z,94.10
2019-04-05T01:14:14.689Z,94.10
2019-04-05T01:16:44.445Z,94.20
2019-04-05T01:19:15.594Z,94.30
2019-04-05T01:21:48.443Z,94.40
2019-04-05T01:24:21.017Z,94.40
2019-04-05T01:26:51.209Z,94.50
2019-04-05T01:29:21.016Z,94.50
2019-04-05T01:31:50.685Z,94.60
2019-04-05T01:34:20.381Z,94.60
2019-04-05T01:36:50.045Z,94.70
2019-04-05T01:39:19.718Z,95.00
2019-04-05T01:41:49.831Z,95.10
2019-04-05T01:44:19.743Z,95.10
2019-04-05T01:46:49.339Z,95.20
2019-04-05T01:49:18.966Z,95.30
2019-04-05T01:51:48.775Z,95.40
2019-04-05T01:54:18.443Z,95.40
2019-04-05T01:56:48.109Z,95.50
2019-04-05T01:59:17.869Z,95.50
2019-04-05T02:01:47.675Z,95.60
2019-04-05T02:04:17.375Z,95.60
2019-04-05T02:06:47.066Z,95.80
2019-04-05T02:09:16.690Z,95.80
2019-04-05T02:11:46.355Z,95.80
2019-04-05T02:14:16.302Z,95.70
2019-04-05T02:16:46.051Z,95.70
2019-04-05T02:19:15.808Z,95.90
2019-04-05T02:21:45.522Z,95.90
2019-04-05T02:24:15.230Z,96.00
2019-04-05T02:26:45.028Z,95.90
2019-04-05T02:29:14.854Z,95.90
2019-04-05T02:31:44.630Z,96.00
2019-04-05T02:34:14.279Z,96.00
2019-04-05T02:36:44.012Z,96.10
2019-04-05T02:39:13.659Z,96.10
2019-04-05T02:41:43.649Z,96.10
2019-04-05T02:44:14.892Z,96.20
2019-04-05T02:46:47.123Z,96.20
2019-04-05T02:49:17.852Z,96.20
2019-04-05T02:51:48.969Z,96.30
2019-04-05T02:54:19.733Z,96.30
2019-04-05T02:56:50.757Z,96.30
2019-04-05T02:59:20.825Z,96.30
2019-04-05T03:01:51.723Z,96.40
2019-04-05T03:04:21.557Z,96.40
2019-04-05T03:06:52.178Z,96.40
2019-04-05T03:09:22.871Z,96.40
2019-04-05T03:11:53.244Z,96.50
2019-04-05T03:14:23.166Z,96.60
2019-04-05T03:16:56.043Z,96.50
2019-04-05T03:19:29.785Z,96.40
2019-04-05T03:22:04.111Z,96.50
2019-04-05T03:24:36.837Z,96.40
2019-04-05T03:27:31.049Z,96.50
2019-04-05T03:30:02.166Z,96.50
2019-04-05T03:32:31.939Z,96.60
2019-04-05T03:35:02.148Z,96.60
2019-04-05T03:37:32.034Z,96.80
2019-04-05T03:40:01.872Z,97.00
2019-04-05T03:42:32.033Z,96.90
2019-04-05T03:45:01.865Z,97.00
2019-04-05T03:47:31.629Z,97.00
2019-04-05T03:50:01.468Z,97.00
2019-04-05T03:52:31.296Z,97.00
2019-04-05T03:55:00.913Z,97.00
2019-04-05T03:57:30.796Z,97.00
2019-04-05T04:00:00.605Z,97.00
2019-04-05T04:02:30.697Z,97.00
2019-04-05T04:05:00.493Z,97.00
2019-04-05T04:07:30.363Z,97.00
2019-04-05T04:09:59.941Z,97.00
2019-04-05T04:12:29.932Z,97.00
2019-04-05T04:15:13.913Z,97.00
2019-04-05T04:17:46.318Z,97.00
2019-04-05T04:20:45.953Z,96.90
2019-04-05T04:23:15.033Z,96.90
2019-04-05T04:25:44.922Z,96.90
2019-04-05T04:28:17.404Z,96.90
2019-04-05T04:30:47.175Z,97.00
2019-04-05T04:33:17.636Z,97.00
2019-04-05T04:35:47.709Z,97.10
2019-04-05T04:38:17.525Z,97.20
2019-04-05T04:40:48.177Z,97.20
2019-04-05T04:43:18.209Z,97.20
2019-04-05T04:45:50.352Z,97.30
2019-04-05T04:48:19.936Z,97.50
2019-04-05T04:50:49.720Z,99.10
2019-04-05T04:53:20.005Z,96.30
2019-04-05T04:55:49.616Z,96.60
2019-04-05T04:58:19.569Z,97.10
2019-04-05T05:00:49.285Z,97.70
2019-04-05T05:03:19.081Z,97.90
2019-04-05T05:05:49.000Z,98.10
2019-04-05T05:08:18.976Z,98.20
2019-04-05T05:10:48.897Z,98.00
2019-04-05T05:13:18.655Z,97.90
2019-04-05T05:15:48.411Z,97.80
2019-04-05T05:18:19.045Z,97.60
2019-04-05T05:20:48.718Z,97.40
2019-04-05T05:23:18.793Z,97.30
2019-04-05T05:25:51.612Z,97.20
2019-04-05T05:28:21.467Z,97.20
2019-04-05T05:30:51.659Z,97.30
2019-04-05T05:33:21.666Z,97.10
2019-04-05T05:35:51.479Z,97.00
2019-04-05T05:38:21.248Z,96.90
2019-04-05T05:40:50.928Z,96.70
2019-04-05T05:43:23.606Z,96.50
2019-04-05T05:45:51.974Z,96.20
2019-04-05T05:48:21.714Z,96.10
2019-04-05T05:50:51.824Z,95.90
2019-04-05T05:53:21.516Z,95.70
2019-04-05T05:55:51.155Z,95.50
2019-04-05T05:58:20.895Z,95.40
2019-04-05T06:00:50.740Z,95.40
2019-04-05T06:03:20.384Z,95.60
2019-04-05T06:05:58.343Z,95.30
2019-04-05T06:08:21.355Z,95.20
2019-04-05T06:10:51.200Z,95.10
2019-04-05T06:13:20.881Z,94.60
2019-04-05T06:15:50.573Z,94.70
2019-04-05T06:18:20.232Z,94.50
2019-04-05T06:20:53.404Z,94.40
2019-04-05T06:23:33.643Z,94.00
2019-04-05T06:25:55.120Z,94.00
2019-04-05T06:28:25.288Z,93.90
2019-04-05T06:30:54.985Z,93.50
2019-04-05T06:33:31.720Z,93.20
2019-04-05T06:36:01.497Z,93.60
2019-04-05T06:38:31.576Z,93.40
2019-04-05T06:41:01.255Z,93.30
2019-04-05T06:43:31.537Z,93.50
2019-04-05T06:46:01.751Z,93.30
2019-04-05T06:48:31.605Z,93.00
2019-04-05T06:51:02.189Z,93.30
2019-04-05T06:53:31.914Z,93.10
2019-04-05T07:00:09.098Z,93.00
2019-04-05T07:02:38.808Z,93.10
2019-04-05T07:05:08.487Z,93.10
2019-04-05T07:07:39.820Z,93.00
2019-04-05T07:10:09.689Z,93.00
2019-04-05T07:12:39.305Z,92.90
2019-04-05T07:15:08.989Z,93.00
2019-04-05T07:17:38.681Z,92.60
2019-04-05T07:20:19.816Z,92.40
2019-04-05T07:22:46.856Z,91.90
2019-04-05T07:25:31.662Z,91.50
2019-04-05T07:28:07.419Z,91.10
2019-04-05T07:30:41.736Z,90.60
2019-04-05T07:33:11.988Z,89.60
2019-04-05T07:35:41.709Z,89.40
2019-04-05T07:38:11.582Z,87.20
2019-04-05T07:40:41.238Z,85.70
2019-04-05T07:43:10.858Z,84.40
2019-04-05T07:45:40.512Z,82.40
2019-04-05T07:48:10.201Z,82.30
2019-04-05T07:50:56.747Z,82.10
2019-04-05T07:53:26.539Z,80.60
2019-04-05T07:55:56.226Z,81.40
2019-04-05T07:58:25.900Z,80.70
2019-04-05T08:00:56.725Z,79.60
2019-04-05T08:03:26.835Z,81.00
2019-04-05T08:05:56.513Z,81.10
2019-04-05T08:09:08.906Z,81.90
2019-04-05T08:11:40.468Z,84.90
2019-04-05T08:14:11.050Z,83.90
2019-04-05T08:16:40.767Z,81.90
2019-04-05T08:19:10.296Z,83.30
2019-04-05T08:21:39.885Z,83.00
2019-04-05T08:24:09.870Z,83.20
2019-04-05T08:26:44.002Z,84.10
2019-04-05T08:29:13.834Z,83.30
2019-04-05T08:31:43.476Z,81.30
2019-04-05T08:34:13.177Z,81.10
2019-04-05T08:36:42.823Z,80.80
2019-04-05T08:39:12.424Z,80.40
2019-04-05T08:41:42.105Z,79.50
2019-04-05T08:44:11.760Z,78.30
2019-04-05T08:46:41.425Z,77.70
2019-04-05T08:49:11.815Z,78.00
2019-04-05T08:51:41.575Z,79.00
2019-04-05T08:54:11.103Z,77.70
2019-04-05T08:56:40.671Z,76.60
2019-04-05T08:59:11.889Z,78.00
2019-04-05T09:01:41.580Z,78.10
2019-04-05T09:04:11.380Z,77.70
2019-04-05T09:06:41.353Z,76.30
2019-04-05T09:09:11.005Z,76.80
2019-04-05T09:11:40.653Z,74.10
2019-04-05T09:14:10.462Z,74.60
2019-04-05T09:16:40.014Z,73.40
2019-04-05T09:19:22.537Z,74.10
2019-04-05T09:21:41.218Z,70.60
2019-04-05T09:24:10.861Z,72.00
2019-04-05T09:26:40.600Z,70.50
2019-04-05T09:29:11.004Z,72.00
2019-04-05T09:31:40.747Z,73.80
2019-04-05T09:34:10.430Z,75.00
2019-04-05T09:36:40.465Z,72.70
2019-04-05T09:39:15.646Z,69.90
2019-04-05T09:41:44.181Z,70.20
2019-04-05T09:44:13.906Z,70.40
2019-04-05T09:46:47.939Z,70.00
2019-04-05T09:49:15.053Z,68.90
2019-04-05T09:51:44.750Z,68.80
2019-04-05T09:54:14.414Z,68.70
2019-04-05T09:56:44.130Z,66.20
2019-04-05T09:59:13.884Z,68.40
2019-04-05T10:01:43.567Z,62.90
2019-04-05T10:04:13.227Z,66.10
2019-04-05T10:06:42.883Z,65.10
2019-04-05T10:09:12.588Z,64.30
2019-04-05T10:11:42.228Z,63.40
2019-04-05T10:14:11.844Z,64.60
2019-04-05T10:16:41.599Z,62.10
2019-04-05T10:19:11.237Z,58.70
2019-04-05T10:21:40.839Z,61.40
2019-04-05T10:24:10.495Z,58.70
2019-04-05T10:26:40.230Z,60.60
2019-04-05T10:29:11.043Z,57.80
2019-04-05T10:31:42.984Z,59.40
2019-04-05T10:34:12.661Z,58.40
2019-04-05T10:36:42.430Z,59.10
2019-04-05T10:39:12.089Z,55.50
2019-04-05T10:41:41.915Z,56.00
2019-04-05T10:44:14.428Z,56.30
2019-04-05T10:46:44.033Z,55.70
2019-04-05T10:49:15.102Z,57.10
2019-04-05T10:51:44.962Z,57.20
2019-04-05T10:54:14.681Z,56.40
2019-04-05T10:56:44.337Z,55.10
2019-04-05T10:59:13.965Z,55.90
2019-04-05T11:01:45.860Z,56.50
2019-04-05T11:04:16.829Z,54.20
2019-04-05T11:06:46.655Z,54.40
2019-04-05T11:09:16.439Z,53.50
2019-04-05T11:11:46.125Z,54.40
2019-04-05T11:14:15.756Z,53.40
2019-04-05T11:16:57.495Z,52.60
2019-04-05T11:19:16.691Z,51.80
2019-04-05T11:21:47.869Z,52.30
2019-04-05T11:24:17.657Z,53.60
2019-04-05T11:26:47.300Z,53.50
2019-04-05T11:29:17.126Z,52.40
2019-04-05T11:31:57.000Z,49.80
2019-04-05T11:34:18.664Z,50.80
2019-04-05T11:36:48.813Z,52.10
2019-04-05T11:39:19.175Z,51.40
2019-04-05T11:41:50.750Z,50.00
2019-04-05T11:44:20.933Z,49.80
2019-04-05T11:46:51.101Z,49.20
2019-04-05T11:49:20.648Z,50.10
2019-04-05T11:51:50.381Z,49.30
2019-04-05T11:54:20.046Z,50.00
2019-04-05T11:56:49.728Z,48.90
2019-04-05T11:59:19.354Z,49.40
2019-04-05T12:02:03.036Z,48.80
2019-04-05T12:04:32.819Z,47.80
2019-04-05T12:07:02.531Z,48.20
2019-04-05T12:09:32.343Z,50.20
2019-04-05T12:12:02.100Z,48.10
2019-04-05T12:14:31.818Z,48.40
2019-04-05T12:17:01.483Z,48.50
2019-04-05T12:19:32.881Z,48.00
2019-04-05T12:22:04.765Z,47.60
2019-04-05T12:24:34.113Z,46.60
2019-04-05T12:27:04.831Z,47.70
2019-04-05T12:29:35.261Z,47.60
2019-04-05T12:32:05.042Z,46.80
2019-04-05T12:34:34.739Z,46.70
2019-04-05T12:37:05.504Z,46.50
2019-04-05T12:39:37.141Z,46.50
2019-04-05T12:42:06.605Z,48.20
2019-04-05T12:44:36.377Z,47.20
2019-04-05T12:47:06.142Z,47.10
2019-04-05T12:49:36.228Z,48.00
2019-04-05T12:52:05.909Z,46.70
2019-04-05T12:54:35.570Z,46.20
2019-04-05T12:57:05.479Z,46.50
2019-04-05T12:59:35.115Z,48.10
2019-04-05T13:02:04.912Z,47.80
2019-04-05T13:04:34.625Z,47.40
2019-04-05T13:07:07.088Z,47.70
2019-04-05T13:09:36.929Z,47.40
2019-04-05T13:12:06.721Z,48.00
2019-04-05T13:14:36.484Z,47.00
2019-04-05T13:17:06.289Z,47.20
2019-04-05T13:19:38.170Z,47.60
2019-04-05T13:22:07.552Z,47.40
2019-04-05T13:24:39.514Z,47.60
2019-04-05T13:27:11.362Z,46.50
2019-04-05T13:29:39.728Z,47.10
2019-04-05T13:32:09.394Z,45.60
2019-04-05T13:34:39.260Z,44.40
2019-04-05T13:37:19.609Z,45.30
2019-04-05T13:39:40.388Z,45.50
2019-04-05T13:42:10.001Z,45.80
2019-04-05T13:44:39.722Z,44.50
2019-04-05T13:47:09.302Z,44.30
2019-04-05T13:49:40.681Z,45.30
2019-04-05T13:52:11.981Z,43.80
2019-04-05T13:54:41.628Z,45.00
2019-04-05T13:57:11.627Z,45.60
2019-04-05T13:59:41.400Z,45.30
2019-04-05T14:02:11.139Z,45.60
2019-04-05T14:04:41.526Z,45.10
2019-04-05T14:07:11.194Z,43.90
2019-04-05T14:09:41.252Z,44.80
2019-04-05T14:12:11.013Z,47.00
2019-04-05T14:14:41.545Z,45.20
2019-04-05T14:17:13.680Z,43.60
2019-04-05T14:19:43.693Z,44.40
2019-04-05T14:22:13.292Z,43.30
2019-04-05T14:24:42.976Z,43.90
2019-04-05T14:29:51.295Z,42.70
2019-04-05T14:32:22.008Z,43.30
2019-04-05T14:34:54.977Z,43.90
2019-04-05T14:37:25.100Z,43.30
2019-04-05T14:39:54.772Z,44.00
2019-04-05T14:42:24.392Z,42.80
2019-04-05T14:44:54.097Z,43.90
2019-04-05T14:47:27.888Z,43.50
2019-04-05T14:49:55.327Z,41.20
2019-04-05T14:52:25.691Z,41.80
2019-04-05T14:54:55.555Z,42.30
2019-04-05T14:57:25.259Z,42.30
2019-04-05T14:59:54.900Z,41.10
2019-04-05T15:02:24.572Z,41.20
2019-04-05T15:04:54.569Z,42.00
2019-04-05T15:07:24.149Z,42.30
2019-04-05T15:09:55.625Z,42.80
2019-04-05T15:12:28.862Z,44.10
2019-04-05T15:14:57.012Z,43.60
2019-04-05T15:17:26.716Z,43.60
2019-04-05T15:19:56.549Z,43.90
2019-04-05T15:22:27.654Z,44.50
2019-04-05T15:24:57.486Z,44.10
2019-04-05T15:27:27.114Z,44.10
2019-04-05T15:29:56.744Z,44.10
2019-04-05T15:32:26.656Z,44.10
2019-04-05T15:34:56.558Z,45.20
2019-04-05T15:37:31.752Z,44.70
2019-04-05T15:40:00.412Z,45.10
2019-04-05T15:42:30.370Z,45.20
2019-04-05T15:45:00.013Z,45.90
2019-04-05T15:47:31.938Z,47.80
2019-04-05T15:50:01.194Z,48.90
2019-04-05T15:52:32.104Z,50.30
2019-04-05T15:55:03.760Z,50.00
2019-04-05T15:57:34.411Z,50.60
2019-04-05T16:00:05.887Z,50.50
2019-04-05T16:02:35.574Z,50.50
2019-04-05T16:05:05.836Z,51.10
2019-04-05T16:07:35.476Z,50.80
2019-04-05T16:10:05.693Z,51.60
2019-04-05T16:12:35.372Z,51.80
2019-04-05T16:15:06.002Z,51.60
2019-04-05T16:17:35.578Z,52.00
2019-04-05T16:20:05.917Z,51.40
2019-04-05T16:22:35.981Z,51.50
2019-04-05T16:25:06.617Z,51.00
2019-04-05T16:27:36.269Z,51.20
2019-04-05T16:30:07.307Z,51.70
2019-04-05T16:32:36.904Z,51.60
2019-04-05T16:35:07.046Z,52.50
2019-04-05T16:37:36.689Z,52.60
2019-04-05T16:40:08.459Z,54.30
2019-04-05T16:42:38.279Z,58.50
2019-04-05T16:45:08.179Z,63.70
2019-04-05T16:47:37.731Z,66.80
2019-04-05T16:50:07.582Z,67.70
2019-04-05T16:52:44.630Z,64.80
2019-04-05T16:55:08.501Z,65.10
2019-04-05T16:57:40.839Z,65.50
2019-04-05T17:00:12.091Z,64.30
2019-04-05T17:02:41.868Z,65.20
2019-04-05T17:05:12.227Z,65.90
2019-04-05T17:07:41.829Z,66.20
2019-04-05T17:10:11.645Z,65.50
2019-04-05T17:12:41.276Z,62.40
2019-04-05T17:15:11.819Z,63.10
2019-04-05T17:17:41.571Z,62.10
2019-04-05T17:20:11.333Z,62.00
2019-04-05T17:22:40.985Z,60.00
2019-04-05T17:25:10.755Z,59.80
2019-04-05T17:27:40.448Z,58.50
2019-04-05T17:30:10.656Z,57.50
2019-04-05T17:32:40.290Z,54.70
2019-04-05T17:35:10.029Z,55.80
2019-04-05T17:37:39.656Z,54.10
2019-04-05T17:40:09.729Z,52.60
2019-04-05T17:42:39.475Z,52.10
2019-04-05T17:45:11.078Z,51.60
2019-04-05T17:47:41.619Z,51.50
2019-04-05T17:50:11.326Z,51.70
2019-04-05T17:52:40.981Z,52.60
2019-04-05T17:55:10.678Z,52.70
2019-04-05T17:57:40.340Z,52.00
2019-04-05T18:00:14.692Z,52.40
2019-04-05T18:02:44.691Z,52.70
2019-04-05T18:05:14.263Z,53.40
2019-04-05T18:07:44.001Z,53.60
2019-04-05T18:10:13.850Z,54.10
2019-04-05T18:12:43.541Z,54.10
2019-04-05T18:15:13.312Z,54.50
2019-04-05T18:17:42.949Z,54.70
2019-04-05T18:20:12.672Z,55.30
2019-04-05T18:22:42.439Z,56.20
2019-04-05T18:25:14.184Z,56.80
2019-04-05T18:27:43.638Z,57.40
2019-04-05T18:30:13.506Z,57.30
2019-04-05T18:32:43.151Z,57.90
2019-04-05T18:35:13.130Z,57.60
2019-04-05T18:37:42.729Z,58.10
2019-04-05T18:40:12.690Z,58.60
2019-04-05T18:42:42.356Z,58.90
2019-04-05T18:45:12.447Z,59.60
2019-04-05T18:47:43.008Z,60.40
2019-04-05T18:50:12.995Z,60.40
2019-04-05T18:52:42.784Z,60.40
2019-04-05T18:55:12.706Z,60.60
2019-04-05T18:57:42.378Z,60.50
2019-04-05T19:00:12.464Z,61.00
2019-04-05T19:02:42.137Z,61.40
2019-04-05T19:05:11.962Z,61.90
2019-04-05T19:07:41.655Z,63.10
2019-04-05T19:10:11.711Z,63.90
2019-04-05T19:12:41.536Z,64.50
2019-04-05T19:15:11.547Z,64.90
2019-04-05T19:17:41.200Z,65.40
2019-04-05T19:20:13.632Z,66.10
2019-04-05T19:22:43.334Z,67.30
2019-04-05T19:25:13.099Z,69.10
2019-04-05T19:27:43.121Z,71.40
2019-04-05T19:50:25.675Z,76.90
2019-04-05T19:52:55.427Z,76.00
2019-04-05T19:55:25.276Z,74.90
2019-04-05T19:57:54.965Z,72.50
2019-04-05T20:00:24.780Z,72.90
2019-04-05T20:02:54.540Z,73.30
2019-04-05T20:05:24.336Z,73.80
2019-04-05T20:07:53.963Z,74.40
2019-04-05T20:10:24.849Z,74.00
2019-04-05T20:12:54.591Z,75.20
2019-04-05T20:15:24.267Z,75.50
2019-04-05T20:17:54.013Z,76.70
2019-04-05T20:20:23.653Z,77.50
2019-04-05T20:22:53.330Z,78.60
2019-04-05T20:25:23.034Z,79.60
2019-04-05T20:27:52.723Z,80.30
2019-04-05T20:30:22.447Z,81.00
2019-04-05T20:32:52.140Z,82.20
2019-04-05T20:35:21.793Z,82.60
2019-04-05T20:37:51.484Z,83.00
2019-04-05T20:40:21.189Z,84.00
2019-04-05T20:42:50.873Z,84.40
2019-04-05T20:45:20.523Z,84.80
2019-04-05T20:47:50.207Z,85.20
2019-04-05T20:50:19.885Z,85.80
2019-04-05T20:52:49.633Z,85.80
2019-04-05T20:55:19.349Z,85.40
2019-04-05T20:57:48.990Z,85.60
2019-04-05T21:00:19.155Z,85.60
2019-04-05T21:02:48.771Z,85.50
2019-04-05T21:05:25.334Z,85.00
2019-04-05T21:07:49.671Z,85.20
2019-04-05T21:10:19.422Z,85.70
2019-04-05T21:12:51.547Z,85.30
2019-04-05T21:15:21.163Z,85.20
2019-04-05T21:17:50.806Z,85.80
2019-04-05T21:20:20.510Z,85.80
2019-04-05T21:22:50.266Z,85.80
2019-04-05T21:25:20.005Z,86.30
2019-04-05T21:27:49.709Z,86.20
2019-04-05T21:30:19.470Z,87.00
2019-04-05T21:32:49.189Z,87.00
2019-04-05T21:35:18.869Z,87.60
2019-04-05T21:37:48.652Z,87.50
2019-04-05T21:40:18.320Z,87.80
2019-04-05T21:42:47.941Z,88.00
2019-04-05T21:45:19.863Z,88.20
2019-04-05T21:47:49.553Z,88.70
2019-04-05T21:50:19.155Z,88.80
2019-04-05T21:52:48.864Z,89.30
2019-04-05T21:55:18.509Z,90.00
2019-04-05T21:57:48.355Z,90.00
2019-04-05T22:00:24.101Z,90.10
2019-04-05T22:02:53.748Z,90.40
2019-04-05T22:05:23.324Z,90.50
2019-04-05T22:07:52.975Z,90.90
2019-04-05T22:10:22.561Z,91.00
2019-04-05T22:12:52.171Z,91.40
2019-04-05T22:15:21.766Z,91.50
2019-04-05T22:17:51.434Z,91.70
2019-04-05T22:20:21.073Z,91.70
2019-04-05T22:22:50.668Z,91.90
2019-04-05T22:25:20.283Z,92.10
2019-04-05T22:27:49.887Z,92.40
2019-04-05T22:30:19.536Z,92.60
2019-04-05T22:32:49.244Z,92.70
2019-04-05T22:35:18.836Z,92.90
2019-04-05T22:37:48.534Z,92.90
2019-04-05T22:40:18.252Z,93.00
2019-04-05T22:42:48.037Z,93.30
2019-04-05T22:45:17.641Z,93.00
2019-04-05T22:47:47.291Z,93.20
2019-04-05T22:50:17.085Z,93.10
2019-04-05T22:52:46.691Z,93.20
2019-04-05T22:55:16.289Z,93.20
2019-04-05T22:57:45.928Z,93.30
2019-04-05T23:00:15.964Z,93.60
2019-04-05T23:02:45.650Z,93.90
2019-04-05T23:05:15.363Z,94.00
2019-04-05T23:07:44.984Z,94.10
2019-04-05T23:10:14.684Z,94.10
2019-04-05T23:12:44.209Z,94.30
2019-04-05T23:15:14.057Z,94.50
2019-04-05T23:17:43.609Z,94.60
2019-04-05T23:20:13.177Z,94.80
2019-04-05T23:22:42.771Z,94.30
2019-04-05T23:25:21.515Z,94.60
2019-04-05T23:27:43.701Z,95.10
2019-04-05T23:30:13.893Z,95.40
2019-04-05T23:32:43.501Z,95.50
2019-04-05T23:35:13.163Z,95.70
2019-04-05T23:37:42.814Z,95.90
2019-04-05T23:40:12.704Z,95.90
2019-04-05T23:42:42.368Z,96.00
2019-04-05T23:45:12.254Z,96.10
2019-04-05T23:47:41.894Z,95.70
2019-04-05T23:50:11.550Z,95.80
2019-04-05T23:52:41.378Z,96.20
2019-04-05T23:55:11.023Z,96.40
2019-04-05T23:57:40.666Z,96.50
